createdAt,value
2022-11-01T00:00:10.642Z,9.50
2022-11-01T00:02:38.912Z,9.50
2022-11-01T00:05:07.614Z,11.57
2022-11-01T00:07:35.649Z,10.88
2022-11-01T00:10:03.750Z,10.48
2022-11-01T00:12:34.632Z,10.48
2022-11-01T00:15:02.597Z,9.30
2022-11-01T00:17:32.057Z,10.38
2022-11-01T00:20:00.873Z,10.43
2022-11-01T00:22:28.946Z,11.10
2022-11-01T00:24:56.881Z,9.98
2022-11-01T00:27:24.979Z,11.18
2022-11-01T00:29:52.957Z,9.88
2022-11-01T00:32:20.993Z,11.52
2022-11-01T00:34:50.131Z,10.50
2022-11-01T00:37:18.145Z,10.32
2022-11-01T00:39:46.104Z,11.45
2022-11-01T00:42:14.337Z,11.23
2022-11-01T00:44:42.356Z,11.15
2022-11-01T00:47:10.290Z,10.82
2022-11-01T00:49:39.212Z,10.00
2022-11-01T00:52:07.154Z,10.73
2022-11-01T00:54:35.202Z,9.93
2022-11-01T00:57:05.375Z,9.68
2022-11-01T00:59:33.433Z,10.63
2022-11-01T01:02:01.679Z,9.98
2022-11-01T01:04:29.973Z,9.95
2022-11-01T01:06:58.019Z,10.07
2022-11-01T01:09:26.058Z,10.95
2022-11-01T01:11:55.091Z,10.02
2022-11-01T01:14:28.508Z,9.88
2022-11-01T01:16:59.420Z,9.32
2022-11-01T01:19:29.029Z,11.07
2022-11-01T01:24:25.052Z,9.68
2022-11-01T01:26:53.191Z,9.75
2022-11-01T01:29:21.260Z,10.27
2022-11-01T01:31:51.361Z,10.18
2022-11-01T01:34:21.640Z,10.63
2022-11-01T01:36:49.588Z,9.75
2022-11-01T01:39:17.591Z,11.70
2022-11-01T01:41:57.805Z,9.80
2022-11-01T01:45:10.255Z,10.13
2022-11-01T01:47:42.059Z,10.10
2022-11-01T01:50:15.863Z,9.90
2022-11-01T01:52:46.908Z,10.95
2022-11-01T01:55:20.680Z,9.20
2022-11-01T01:57:50.058Z,9.65
2022-11-01T02:00:18.597Z,10.70
2022-11-01T02:02:47.929Z,10.73
2022-11-01T02:05:31.300Z,10.90
2022-11-01T02:08:03.634Z,11.95
2022-11-01T02:10:32.942Z,11.02
2022-11-01T02:13:01.038Z,12.63
2022-11-01T02:15:41.549Z,13.85
2022-11-01T02:18:45.678Z,12.65
2022-11-01T02:21:29.979Z,12.50
2022-11-01T02:23:57.891Z,10.32
2022-11-01T02:26:51.152Z,10.75
2022-11-01T02:29:38.132Z,12.05
2022-11-01T02:32:23.061Z,10.20
2022-11-01T02:34:58.349Z,9.20
2022-11-01T02:37:55.200Z,9.90
2022-11-01T02:40:47.923Z,10.32
2022-11-01T02:43:30.613Z,10.20
2022-11-01T02:46:22.389Z,10.85
2022-11-01T02:48:50.771Z,10.07
2022-11-01T02:51:23.348Z,10.00
2022-11-01T02:53:51.356Z,9.68
2022-11-01T02:56:20.565Z,9.80
2022-11-01T02:58:49.845Z,10.45
2022-11-01T03:01:25.753Z,11.15
2022-11-01T03:03:56.231Z,10.82
2022-11-01T03:06:48.687Z,10.40
2022-11-01T03:09:17.239Z,9.98
2022-11-01T03:12:09.497Z,10.20
2022-11-01T03:14:50.511Z,9.98
2022-11-01T03:17:24.106Z,9.75
2022-11-01T03:20:26.696Z,9.27
2022-11-01T03:23:01.949Z,9.30
2022-11-01T03:25:41.406Z,9.10
2022-11-01T03:28:18.555Z,9.15
2022-11-01T03:30:54.164Z,8.75
2022-11-01T03:33:25.018Z,7.97
2022-11-01T03:35:57.046Z,8.50
2022-11-01T03:38:30.091Z,7.78
2022-11-01T03:41:03.646Z,8.95
2022-11-01T03:43:33.818Z,8.43
2022-11-01T03:46:02.015Z,8.93
2022-11-01T03:48:30.125Z,7.97
2022-11-01T03:50:58.135Z,8.43
2022-11-01T03:53:28.790Z,10.00
2022-11-01T03:55:56.688Z,9.13
2022-11-01T03:58:24.814Z,8.48
2022-11-01T04:00:53.805Z,9.25
2022-11-01T04:03:21.812Z,9.00
2022-11-01T04:05:49.719Z,9.75
2022-11-01T04:08:18.301Z,9.43
2022-11-01T04:10:46.223Z,9.20
2022-11-01T04:13:14.360Z,9.20
2022-11-01T04:16:00.703Z,8.93
2022-11-01T04:18:47.056Z,9.88
2022-11-01T04:21:18.010Z,9.60
2022-11-01T04:23:47.159Z,8.70
2022-11-01T04:26:20.771Z,10.07
2022-11-01T04:28:58.588Z,9.25
2022-11-01T04:31:36.159Z,9.05
2022-11-01T04:34:05.755Z,9.43
2022-11-01T04:39:02.614Z,9.23
2022-11-01T04:41:30.897Z,10.35
2022-11-01T04:44:00.512Z,10.05
2022-11-01T04:49:00.695Z,9.57
2022-11-01T04:51:28.798Z,11.20
2022-11-01T04:53:57.185Z,10.70
2022-11-01T04:56:25.194Z,9.40
2022-11-01T04:58:53.327Z,10.43
2022-11-01T05:01:21.561Z,10.13
2022-11-01T05:03:51.345Z,10.25
2022-11-01T05:08:47.772Z,10.48
2022-11-01T05:11:15.913Z,11.00
2022-11-01T05:13:43.817Z,10.35
2022-11-01T05:16:19.454Z,11.80
2022-11-01T05:18:50.021Z,11.23
2022-11-01T05:21:18.099Z,11.52
2022-11-01T05:23:50.394Z,11.85
2022-11-01T05:26:18.459Z,11.07
2022-11-01T05:28:46.536Z,11.15
2022-11-01T05:31:15.481Z,11.57
2022-11-01T05:33:43.530Z,11.90
2022-11-01T05:36:11.609Z,10.98
2022-11-01T05:38:39.653Z,10.63
2022-11-01T05:41:07.644Z,10.90
2022-11-01T05:43:35.686Z,10.48
2022-11-01T05:46:08.163Z,10.40
2022-11-01T05:48:36.251Z,12.00
2022-11-01T05:51:04.228Z,11.38
2022-11-01T05:53:32.397Z,11.18
2022-11-01T05:56:00.549Z,11.68
2022-11-01T05:58:30.826Z,11.32
2022-11-01T06:01:06.225Z,11.65
2022-11-01T06:03:35.476Z,12.38
2022-11-01T06:06:04.205Z,11.95
2022-11-01T06:08:32.886Z,10.80
2022-11-01T06:11:07.124Z,10.93
2022-11-01T06:13:35.267Z,11.85
2022-11-01T06:16:05.690Z,11.32
2022-11-01T06:18:35.511Z,10.65
2022-11-01T06:21:03.483Z,11.32
2022-11-01T06:23:31.513Z,11.90
2022-11-01T06:26:05.711Z,11.20
2022-11-01T06:28:34.097Z,11.10
2022-11-01T06:31:03.310Z,11.35
2022-11-01T06:33:32.634Z,11.70
2022-11-01T06:36:02.291Z,11.15
2022-11-01T06:38:30.663Z,11.80
2022-11-01T06:40:58.784Z,11.45
2022-11-01T06:43:26.872Z,11.48
2022-11-01T06:45:55.141Z,11.38
2022-11-01T06:48:24.132Z,11.95
2022-11-01T06:50:54.358Z,10.90
2022-11-01T06:53:25.738Z,11.73
2022-11-01T06:55:53.907Z,12.07
2022-11-01T06:58:21.883Z,12.02
2022-11-01T07:00:50.035Z,10.80
2022-11-01T07:03:18.596Z,11.07
2022-11-01T07:05:49.080Z,13.02
2022-11-01T07:08:17.029Z,10.98
2022-11-01T07:10:45.477Z,11.38
2022-11-01T07:13:14.774Z,11.98
2022-11-01T07:15:43.023Z,10.50
2022-11-01T07:18:12.886Z,11.52
2022-11-01T07:20:43.526Z,10.02
2022-11-01T07:23:17.100Z,10.02
2022-11-01T07:25:45.324Z,10.43
2022-11-01T07:28:13.444Z,9.88
2022-11-01T07:30:41.526Z,9.95
2022-11-01T07:33:10.044Z,10.73
2022-11-01T07:35:38.052Z,11.00
2022-11-01T07:38:09.744Z,9.95
2022-11-01T07:40:42.146Z,8.55
2022-11-01T07:43:10.120Z,9.30
2022-11-01T07:45:38.081Z,8.85
2022-11-01T07:48:11.067Z,7.90
2022-11-01T07:50:40.434Z,7.82
2022-11-01T07:53:11.166Z,7.07
2022-11-01T07:55:39.373Z,6.75
2022-11-01T07:58:08.921Z,8.13
2022-11-01T08:00:37.709Z,6.68
2022-11-01T08:03:12.143Z,6.20
2022-11-01T08:05:40.973Z,6.05
2022-11-01T08:08:10.505Z,6.15
2022-11-01T08:13:22.157Z,5.68
2022-11-01T08:15:52.389Z,6.07
2022-11-01T08:18:25.101Z,6.78
2022-11-01T08:20:53.104Z,6.63
2022-11-01T08:23:22.662Z,6.13
2022-11-01T08:25:50.677Z,5.63
2022-11-01T08:28:21.187Z,5.78
2022-11-01T08:30:52.291Z,5.80
2022-11-01T08:33:20.315Z,5.18
2022-11-01T08:35:50.637Z,4.80
2022-11-01T08:38:22.608Z,5.57
2022-11-01T08:40:50.676Z,6.28
2022-11-01T08:43:18.971Z,5.63
2022-11-01T08:45:48.297Z,5.13
2022-11-01T08:48:16.247Z,5.57
2022-11-01T08:50:44.325Z,4.75
2022-11-01T08:53:16.825Z,5.22
2022-11-01T08:55:44.986Z,6.00
2022-11-01T08:58:13.068Z,5.28
2022-11-01T09:00:42.169Z,5.30
2022-11-01T09:03:10.230Z,4.68
2022-11-01T09:05:38.305Z,5.22
2022-11-01T09:08:06.948Z,5.45
2022-11-01T09:10:35.698Z,5.60
2022-11-01T09:13:04.163Z,4.82
2022-11-01T09:15:34.596Z,5.17
2022-11-01T09:18:06.964Z,5.50
2022-11-01T09:20:35.080Z,6.38
2022-11-01T09:23:05.303Z,5.38
2022-11-01T09:25:33.490Z,5.55
2022-11-01T09:28:01.525Z,5.90
2022-11-01T09:30:32.666Z,5.53
2022-11-01T09:33:05.539Z,4.97
2022-11-01T09:35:34.246Z,4.97
2022-11-01T09:38:05.628Z,5.25
2022-11-01T09:40:44.736Z,5.15
2022-11-01T09:43:23.508Z,5.03
2022-11-01T09:45:53.286Z,5.00
2022-11-01T09:48:21.963Z,4.70
2022-11-01T09:50:53.358Z,4.63
2022-11-01T09:53:30.243Z,4.43
2022-11-01T09:56:06.831Z,5.07
2022-11-01T09:58:59.826Z,5.15
2022-11-01T10:01:52.980Z,4.22
2022-11-01T10:04:29.764Z,4.70
2022-11-01T10:07:09.226Z,5.53
2022-11-01T10:09:55.255Z,4.18
2022-11-01T10:13:00.110Z,4.25
2022-11-01T10:16:13.382Z,4.82
2022-11-01T10:19:00.932Z,4.22
2022-11-01T10:21:45.265Z,4.18
2022-11-01T10:24:20.383Z,4.88
2022-11-01T10:26:54.947Z,4.63
2022-11-01T10:29:41.812Z,4.13
2022-11-01T10:32:44.136Z,4.10
2022-11-01T10:37:57.366Z,4.55
2022-11-01T10:40:45.106Z,5.32
2022-11-01T10:43:21.249Z,4.70
2022-11-01T10:45:54.665Z,4.22
2022-11-01T10:48:45.688Z,4.60
2022-11-01T10:51:18.217Z,4.38
2022-11-01T10:53:51.096Z,4.43
2022-11-01T10:56:42.599Z,4.60
2022-11-01T10:59:21.497Z,4.13
2022-11-01T11:01:53.727Z,4.22
2022-11-01T11:04:25.582Z,4.68
2022-11-01T11:06:53.673Z,4.50
2022-11-01T11:09:38.386Z,4.75
2022-11-01T11:12:15.601Z,4.65
2022-11-01T11:14:48.289Z,5.22
2022-11-01T11:17:23.536Z,4.82
2022-11-01T11:19:54.437Z,5.10
2022-11-01T11:22:23.928Z,4.75
2022-11-01T11:24:53.408Z,5.65
2022-11-01T11:27:34.533Z,5.07
2022-11-01T11:30:09.172Z,5.00
2022-11-01T11:32:42.775Z,5.00
2022-11-01T11:35:20.075Z,5.13
2022-11-01T11:38:05.639Z,4.78
2022-11-01T11:40:41.559Z,4.95
2022-11-01T11:43:24.336Z,4.55
2022-11-01T11:46:19.816Z,5.05
2022-11-01T11:49:03.016Z,5.15
2022-11-01T11:51:38.666Z,4.85
2022-11-01T11:54:25.756Z,4.88
2022-11-01T11:57:09.240Z,4.93
2022-11-01T11:59:38.636Z,5.10
2022-11-01T12:06:24.897Z,5.57
2022-11-01T12:08:58.490Z,5.28
2022-11-01T12:11:47.053Z,5.88
2022-11-01T12:14:24.106Z,6.03
2022-11-01T12:16:53.639Z,6.07
2022-11-01T12:19:31.766Z,8.75
2022-11-01T12:22:06.322Z,7.45
2022-11-01T12:24:53.156Z,10.15
2022-11-01T12:27:27.458Z,8.02
2022-11-01T12:30:16.955Z,7.45
2022-11-01T12:33:04.829Z,7.70
2022-11-01T12:35:42.085Z,7.65
2022-11-01T12:38:13.298Z,8.05
2022-11-01T12:40:46.356Z,7.88
2022-11-01T12:43:19.782Z,7.93
2022-11-01T12:46:17.215Z,7.88
2022-11-01T12:48:52.583Z,8.70
2022-11-01T12:51:32.259Z,8.60
2022-11-01T12:54:17.845Z,8.80
2022-11-01T12:56:46.706Z,8.82
2022-11-01T12:59:21.834Z,8.82
2022-11-01T13:01:57.258Z,8.65
2022-11-01T13:04:35.467Z,8.52
2022-11-01T13:07:33.941Z,8.95
2022-11-01T13:10:10.646Z,10.18
2022-11-01T13:13:12.732Z,10.18
2022-11-01T13:15:55.392Z,10.40
2022-11-01T13:18:50.752Z,9.95
2022-11-01T13:21:26.752Z,10.95
2022-11-01T13:24:11.508Z,11.25
2022-11-01T13:26:51.621Z,11.93
2022-11-01T13:29:22.088Z,11.88
2022-11-01T13:32:19.769Z,17.67
2022-11-01T13:34:55.871Z,15.15
2022-11-01T13:37:46.124Z,12.52
2022-11-01T13:41:04.672Z,11.32
2022-11-01T13:43:45.861Z,11.77
2022-11-01T13:46:50.006Z,10.52
2022-11-01T13:50:03.183Z,10.35
2022-11-01T13:52:35.727Z,10.63
2022-11-01T13:55:29.265Z,9.70
2022-11-01T13:57:58.401Z,9.48
2022-11-01T14:00:44.887Z,10.70
2022-11-01T14:03:28.123Z,9.25
2022-11-01T14:06:11.917Z,10.82
2022-11-01T14:08:47.911Z,11.73
2022-11-01T14:11:46.513Z,11.07
2022-11-01T14:14:34.483Z,13.00
2022-11-01T14:17:27.614Z,12.75
2022-11-01T14:20:02.512Z,12.50
2022-11-01T14:22:33.556Z,10.00
2022-11-01T14:25:25.440Z,9.25
2022-11-01T14:28:19.355Z,8.70
2022-11-01T14:30:52.652Z,9.27
2022-11-01T14:33:23.179Z,9.07
2022-11-01T14:35:58.675Z,8.05
2022-11-01T14:38:41.795Z,8.77
2022-11-01T14:41:14.736Z,9.88
2022-11-01T14:43:54.559Z,8.00
2022-11-01T14:46:27.444Z,9.07
2022-11-01T14:49:32.151Z,7.57
2022-11-01T14:52:36.355Z,7.97
2022-11-01T14:55:17.803Z,7.95
2022-11-01T14:57:46.561Z,8.10
2022-11-01T15:00:32.539Z,7.77
2022-11-01T15:03:02.929Z,7.05
2022-11-01T15:05:31.773Z,7.65
2022-11-01T15:08:01.136Z,8.02
2022-11-01T15:10:41.238Z,7.72
2022-11-01T15:13:16.025Z,7.53
2022-11-01T15:15:44.595Z,6.90
2022-11-01T15:18:20.807Z,9.55
2022-11-01T15:20:53.434Z,9.65
2022-11-01T15:23:27.894Z,10.77
2022-11-01T15:25:58.330Z,11.00
2022-11-01T15:28:34.413Z,11.85
2022-11-01T15:31:07.115Z,11.43
2022-11-01T15:33:35.495Z,12.40
2022-11-01T15:36:24.986Z,10.27
2022-11-01T15:38:56.944Z,7.50
2022-11-01T15:41:36.287Z,9.18
2022-11-01T15:44:07.954Z,9.60
2022-11-01T15:46:42.999Z,10.18
2022-11-01T15:49:18.629Z,9.65
2022-11-01T15:51:57.875Z,11.00
2022-11-01T15:54:35.481Z,9.65
2022-11-01T15:57:14.676Z,8.10
2022-11-01T15:59:52.905Z,8.52
2022-11-01T16:02:32.313Z,8.20
2022-11-01T16:05:01.511Z,7.28
2022-11-01T16:07:34.323Z,7.45
2022-11-01T16:10:06.659Z,8.77
2022-11-01T16:12:39.420Z,7.97
2022-11-01T16:15:23.959Z,7.28
2022-11-01T16:17:57.338Z,6.95
2022-11-01T16:20:39.869Z,6.90
2022-11-01T16:25:42.130Z,7.45
2022-11-01T16:28:10.051Z,6.72
2022-11-01T16:30:49.600Z,6.85
2022-11-01T16:33:28.504Z,6.45
2022-11-01T16:36:43.981Z,7.50
2022-11-01T16:39:28.707Z,6.75
2022-11-01T16:41:56.950Z,7.60
2022-11-01T16:44:25.150Z,8.93
2022-11-01T16:46:55.805Z,9.63
2022-11-01T16:49:26.689Z,8.93
2022-11-01T16:51:57.216Z,8.90
2022-11-01T16:54:27.106Z,8.77
2022-11-01T16:56:58.899Z,10.77
2022-11-01T16:59:27.083Z,10.85
2022-11-01T17:01:59.137Z,11.00
2022-11-01T17:04:28.525Z,10.80
2022-11-01T17:06:58.966Z,10.50
2022-11-01T17:09:31.627Z,10.27
2022-11-01T17:11:59.866Z,9.68
2022-11-01T17:14:28.067Z,9.90
2022-11-01T17:16:57.044Z,9.63
2022-11-01T17:19:34.457Z,8.27
2022-11-01T17:22:21.937Z,9.68
2022-11-01T17:24:50.221Z,8.10
2022-11-01T17:27:19.640Z,7.50
2022-11-01T17:29:47.833Z,8.60
2022-11-01T17:32:15.803Z,8.60
2022-11-01T17:34:43.840Z,8.48
2022-11-01T17:37:18.444Z,7.60
2022-11-01T17:39:46.403Z,8.82
2022-11-01T17:42:14.406Z,8.63
2022-11-01T17:44:43.718Z,7.70
2022-11-01T17:47:15.345Z,8.35
2022-11-01T17:49:43.288Z,8.52
2022-11-01T17:52:13.452Z,9.10
2022-11-01T17:54:41.555Z,8.13
2022-11-01T17:57:09.558Z,8.88
2022-11-01T17:59:40.875Z,8.02
2022-11-01T18:02:12.923Z,7.40
2022-11-01T18:04:41.216Z,7.38
2022-11-01T18:07:15.564Z,7.60
2022-11-01T18:09:43.583Z,8.77
2022-11-01T18:12:31.113Z,8.40
2022-11-01T18:15:09.243Z,7.45
2022-11-01T18:18:35.438Z,6.93
2022-11-01T18:21:46.814Z,7.18
2022-11-01T18:24:22.411Z,7.25
2022-11-01T18:26:52.137Z,6.47
2022-11-01T18:29:25.827Z,7.72
2022-11-01T18:32:19.471Z,7.20
2022-11-01T18:35:20.446Z,6.75
2022-11-01T18:38:03.648Z,7.75
2022-11-01T18:41:00.240Z,7.07
2022-11-01T18:43:33.118Z,8.40
2022-11-01T18:46:24.039Z,6.95
2022-11-01T18:49:04.190Z,7.32
2022-11-01T18:51:35.783Z,6.32
2022-11-01T18:54:09.464Z,7.15
2022-11-01T18:56:50.534Z,7.10
2022-11-01T18:59:28.197Z,6.50
2022-11-01T19:02:01.256Z,6.90
2022-11-01T19:04:36.426Z,6.88
2022-11-01T19:07:16.686Z,6.28
2022-11-01T19:09:54.881Z,7.45
2022-11-01T19:12:30.504Z,6.50
2022-11-01T19:15:05.627Z,8.57
2022-11-01T19:17:39.333Z,6.82
2022-11-01T19:20:30.664Z,7.72
2022-11-01T19:23:04.790Z,7.43
2022-11-01T19:25:35.961Z,6.85
2022-11-01T19:28:29.387Z,7.30
2022-11-01T19:31:03.949Z,7.32
2022-11-01T19:33:42.346Z,7.30
2022-11-01T19:36:20.438Z,7.03
2022-11-01T19:38:49.990Z,7.25
2022-11-01T19:44:02.823Z,7.38
2022-11-01T19:46:31.313Z,7.30
2022-11-01T19:48:59.516Z,7.78
2022-11-01T19:51:27.444Z,7.50
2022-11-01T19:53:55.369Z,6.72
2022-11-01T19:56:28.730Z,7.18
2022-11-01T19:58:59.231Z,6.90
2022-11-01T20:01:41.661Z,7.78
2022-11-01T20:04:29.602Z,7.15
2022-11-01T20:07:17.784Z,7.30
2022-11-01T20:09:45.868Z,7.63
2022-11-01T20:12:19.982Z,7.47
2022-11-01T20:14:51.132Z,7.90
2022-11-01T20:17:19.434Z,8.68
2022-11-01T20:19:47.465Z,7.50
2022-11-01T20:22:16.750Z,7.85
2022-11-01T20:24:44.648Z,7.72
2022-11-01T20:27:12.550Z,8.82
2022-11-01T20:29:40.651Z,7.93
2022-11-01T20:32:08.595Z,7.88
2022-11-01T20:34:37.051Z,7.53
2022-11-01T20:37:27.346Z,7.22
2022-11-01T20:39:53.203Z,8.80
2022-11-01T20:42:21.396Z,8.02
2022-11-01T20:44:49.378Z,7.38
2022-11-01T20:47:17.390Z,7.88
2022-11-01T20:49:46.483Z,8.15
2022-11-01T20:52:38.094Z,7.32
2022-11-01T20:55:03.762Z,7.30
2022-11-01T20:57:31.692Z,9.50
2022-11-01T20:59:59.650Z,8.35
2022-11-01T21:02:28.935Z,8.52
2022-11-01T21:05:15.654Z,8.45
2022-11-01T21:07:47.971Z,8.27
2022-11-01T21:10:44.104Z,8.32
2022-11-01T21:13:21.831Z,8.32
2022-11-01T21:15:50.580Z,7.78
2022-11-01T21:18:18.497Z,8.60
2022-11-01T21:20:50.010Z,8.35
2022-11-01T21:23:32.979Z,8.35
2022-11-01T21:26:04.284Z,9.10
2022-11-01T21:28:43.106Z,8.52
2022-11-01T21:31:11.004Z,8.10
2022-11-01T21:33:43.638Z,7.88
2022-11-01T21:36:40.197Z,8.88
2022-11-01T21:39:34.210Z,8.23
2022-11-01T21:42:07.247Z,7.88
2022-11-01T21:44:45.373Z,7.70
2022-11-01T21:47:22.331Z,8.55
2022-11-01T21:49:51.340Z,8.55
2022-11-01T21:52:23.772Z,7.78
2022-11-01T21:54:53.354Z,8.70
2022-11-01T21:59:49.244Z,7.85
2022-11-01T22:02:17.376Z,8.15
2022-11-01T22:04:46.086Z,8.13
2022-11-01T22:07:15.168Z,7.47
2022-11-01T22:09:44.128Z,7.97
2022-11-01T22:12:12.053Z,7.72
2022-11-01T22:14:41.637Z,8.70
2022-11-01T22:17:09.741Z,8.32
2022-11-01T22:19:37.696Z,8.90
2022-11-01T22:22:05.712Z,9.10
2022-11-01T22:24:33.663Z,8.13
2022-11-01T22:27:02.968Z,7.53
2022-11-01T22:29:31.094Z,8.18
2022-11-01T22:31:58.999Z,7.72
2022-11-01T22:34:26.886Z,7.38
2022-11-01T22:36:55.936Z,7.43
2022-11-01T22:39:27.291Z,8.77
2022-11-01T22:41:55.566Z,7.53
2022-11-01T22:44:29.874Z,8.25
2022-11-01T22:47:03.078Z,7.97
2022-11-01T22:49:43.250Z,8.25
2022-11-01T22:52:27.468Z,8.55
2022-11-01T22:55:11.683Z,7.63
2022-11-01T22:57:46.723Z,7.90
2022-11-01T23:00:39.812Z,7.68
2022-11-01T23:03:25.939Z,7.60
2022-11-01T23:05:58.985Z,7.43
2022-11-01T23:08:31.041Z,7.15
2022-11-01T23:11:00.993Z,8.40
2022-11-01T23:13:53.488Z,9.05
2022-11-01T23:16:24.548Z,7.57
2022-11-01T23:18:54.690Z,8.88
2022-11-01T23:21:24.159Z,8.77
2022-11-01T23:26:21.375Z,8.63
2022-11-01T23:28:53.285Z,10.70
2022-11-01T23:31:22.520Z,10.27
2022-11-01T23:33:51.181Z,8.40
2022-11-01T23:36:19.361Z,8.10
2022-11-01T23:39:02.465Z,7.72
2022-11-01T23:41:46.416Z,8.70
2022-11-01T23:44:49.903Z,7.53
2022-11-01T23:47:21.158Z,7.70
2022-11-01T23:49:56.929Z,6.80
2022-11-01T23:52:42.130Z,7.72
2022-11-01T23:55:27.661Z,6.53
2022-11-01T23:58:04.628Z,7.45
